createdAt,value
2019-05-11T00:01:07.654Z,97619.59
2019-05-11T00:04:12.133Z,97607.77
2019-05-11T00:07:16.607Z,97606.77
2019-05-11T00:10:23.515Z,97614.95
2019-05-11T00:13:27.298Z,97596.48
2019-05-11T00:16:31.774Z,97596.78
2019-05-11T00:19:36.257Z,97596.44
2019-05-11T00:22:40.741Z,97597.94
2019-05-11T00:25:45.214Z,97591.94
2019-05-11T00:28:49.973Z,97567.05
2019-05-11T00:31:54.809Z,97555.63
2019-05-11T00:34:59.635Z,97561.22
2019-05-11T00:38:04.473Z,97559.30
2019-05-11T00:41:09.304Z,97552.38
2019-05-11T00:44:14.147Z,97546.34
2019-05-11T00:47:18.972Z,97553.11
2019-05-11T00:50:38.117Z,97540.05
2019-05-11T00:53:30.285Z,97537.52
2019-05-11T00:56:34.749Z,97536.00
2019-05-11T00:59:39.232Z,97537.45
2019-05-11T01:02:43.702Z,97524.48
2019-05-11T01:05:48.492Z,97518.36
2019-05-11T01:08:52.970Z,97507.53
2019-05-11T01:11:57.743Z,97498.82
2019-05-11T01:15:02.673Z,97488.64
2019-05-11T01:18:07.405Z,97486.66
2019-05-11T01:21:12.347Z,97480.89
2019-05-11T01:24:17.175Z,97481.01
2019-05-11T01:27:22.114Z,97473.45
2019-05-11T01:30:26.597Z,97483.43
2019-05-11T01:33:31.368Z,97473.64
2019-05-11T01:36:36.204Z,97472.34
2019-05-11T01:39:40.682Z,97477.78
2019-05-11T01:42:45.456Z,97451.50
2019-05-11T01:45:50.289Z,97447.78
2019-05-11T01:48:55.017Z,97458.14
2019-05-11T01:51:59.503Z,97460.09
2019-05-11T01:55:04.001Z,97451.20
2019-05-11T01:58:08.439Z,97449.61
2019-05-11T02:01:12.883Z,97446.45
2019-05-11T02:04:17.615Z,97440.47
2019-05-11T02:07:22.382Z,97440.07
2019-05-11T02:10:26.812Z,97438.91
2019-05-11T02:13:31.249Z,97446.13
2019-05-11T02:16:36.032Z,97449.77
2019-05-11T02:19:40.460Z,97453.25
2019-05-11T02:22:44.906Z,97441.84
2019-05-11T02:25:49.351Z,97433.73
2019-05-11T02:28:53.798Z,97431.67
2019-05-11T02:31:58.251Z,97433.92
2019-05-11T02:35:02.710Z,97431.59
2019-05-11T02:38:07.398Z,97421.41
2019-05-11T02:41:11.841Z,97399.58
2019-05-11T02:44:16.277Z,97402.27
2019-05-11T02:47:20.981Z,97396.26
2019-05-11T02:50:25.448Z,97396.26
2019-05-11T02:53:31.327Z,97399.44
2019-05-11T02:56:35.776Z,97395.77
2019-05-11T02:59:40.517Z,97382.94
2019-05-11T03:02:44.962Z,97382.81
2019-05-11T03:05:49.469Z,97380.54
2019-05-11T03:08:53.997Z,97376.23
2019-05-11T03:11:58.614Z,97378.34
2019-05-11T03:15:03.473Z,97381.20
2019-05-11T03:18:07.897Z,97378.83
2019-05-11T03:21:12.340Z,97376.95
2019-05-11T03:24:17.033Z,97377.30
2019-05-11T03:27:21.758Z,97384.41
2019-05-11T03:30:26.202Z,97373.88
2019-05-11T03:33:30.659Z,97375.53
2019-05-11T03:36:35.346Z,97368.44
2019-05-11T03:39:39.785Z,97378.33
2019-05-11T03:42:44.230Z,97376.78
2019-05-11T03:45:48.665Z,97377.99
2019-05-11T03:48:53.100Z,97378.02
2019-05-11T03:51:57.548Z,97370.25
2019-05-11T03:55:01.988Z,97359.66
2019-05-11T03:58:06.432Z,97372.31
2019-05-11T04:01:11.135Z,97369.99
2019-05-11T04:04:16.574Z,97359.91
2019-05-11T04:07:21.291Z,97369.56
2019-05-11T04:10:25.997Z,97357.70
2019-05-11T04:13:30.548Z,97359.91
2019-05-11T04:16:34.991Z,97356.21
2019-05-11T04:19:39.430Z,97353.58
2019-05-11T04:22:44.155Z,97349.91
2019-05-11T04:25:48.591Z,97350.47
2019-05-11T04:28:53.037Z,97350.89
2019-05-11T04:31:57.848Z,97347.59
2019-05-11T04:35:02.323Z,97362.63
2019-05-11T04:38:06.749Z,97366.34
2019-05-11T04:41:11.516Z,97368.82
2019-05-11T04:44:16.315Z,97361.77
2019-05-11T04:47:21.076Z,97357.09
2019-05-11T04:50:25.515Z,97362.67
2019-05-11T04:53:29.961Z,97362.03
2019-05-11T04:56:34.400Z,97359.28
2019-05-11T04:59:39.182Z,97365.63
2019-05-11T05:02:43.626Z,97362.62
2019-05-11T05:05:48.200Z,97362.81
2019-05-11T05:08:52.583Z,97353.67
2019-05-11T05:11:57.401Z,97356.46
2019-05-11T05:15:01.832Z,97362.53
2019-05-11T05:18:06.276Z,97360.76
2019-05-11T05:21:10.966Z,97372.28
2019-05-11T05:24:15.688Z,97381.16
2019-05-11T05:27:20.135Z,97362.93
2019-05-11T05:30:24.571Z,97375.41
2019-05-11T05:33:30.093Z,97374.14
2019-05-11T05:36:34.529Z,97379.06
2019-05-11T05:39:38.976Z,97377.45
2019-05-11T05:42:43.775Z,97379.20
2019-05-11T05:45:48.211Z,97386.27
2019-05-11T05:48:53.031Z,97394.35
2019-05-11T05:51:58.460Z,97391.23
2019-05-11T05:55:03.767Z,97399.81
2019-05-11T05:58:08.555Z,97409.18
2019-05-11T06:01:13.311Z,97408.13
2019-05-11T06:04:17.756Z,97410.76
2019-05-11T06:07:22.543Z,97407.58
2019-05-11T06:10:26.979Z,97412.91
2019-05-11T06:13:44.489Z,97414.00
2019-05-11T06:16:38.159Z,97411.30
2019-05-11T06:19:42.610Z,97419.52
2019-05-11T06:22:47.319Z,97418.27
2019-05-11T06:25:51.770Z,97415.13
2019-05-11T06:28:56.215Z,97422.41
2019-05-11T06:32:00.662Z,97425.68
2019-05-11T06:35:07.317Z,97424.87
2019-05-11T06:38:11.845Z,97417.11
2019-05-11T06:41:16.747Z,97417.58
2019-05-11T06:44:21.200Z,97419.55
2019-05-11T06:47:25.879Z,97416.06
2019-05-11T06:50:30.331Z,97417.80
2019-05-11T06:53:34.800Z,97415.95
2019-05-11T06:56:39.259Z,97417.59
2019-05-11T06:59:43.717Z,97419.31
2019-05-11T07:02:48.410Z,97407.02
2019-05-11T07:05:52.869Z,97409.33
2019-05-11T07:08:57.323Z,97400.52
2019-05-11T07:12:02.132Z,97406.23
2019-05-11T07:15:08.919Z,97421.69
2019-05-11T07:18:13.356Z,97435.52
2019-05-11T07:21:17.803Z,97444.42
2019-05-11T07:24:22.251Z,97445.61
2019-05-11T07:27:26.681Z,97425.11
2019-05-11T07:30:31.401Z,97437.34
2019-05-11T07:33:37.887Z,97435.59
2019-05-11T07:36:42.000Z,97424.87
2019-05-11T07:39:48.604Z,97424.09
2019-05-11T07:42:52.877Z,97426.22
2019-05-11T07:45:58.445Z,97428.84
2019-05-11T07:49:03.027Z,97423.48
2019-05-11T07:52:07.859Z,97420.50
2019-05-11T07:55:12.689Z,97419.82
2019-05-11T07:58:20.224Z,97421.64
2019-05-11T08:01:23.631Z,97418.92
2019-05-11T08:04:28.905Z,97417.34
2019-05-11T08:07:33.468Z,97420.93
2019-05-11T08:10:39.045Z,97413.70
2019-05-11T08:13:43.735Z,97406.67
2019-05-11T08:16:48.247Z,97424.37
2019-05-11T08:19:53.026Z,97424.02
2019-05-11T08:22:58.665Z,97419.38
2019-05-11T08:26:03.607Z,97426.61
2019-05-11T08:29:08.341Z,97431.80
2019-05-11T08:32:12.793Z,97437.31
2019-05-11T08:35:18.012Z,97433.30
2019-05-11T08:38:22.842Z,97439.30
2019-05-11T08:41:28.111Z,97422.47
2019-05-11T08:44:33.019Z,97435.76
2019-05-11T08:47:37.932Z,97435.94
2019-05-11T08:50:42.476Z,97450.66
2019-05-11T08:53:48.041Z,97457.88
2019-05-11T08:56:52.973Z,97465.06
2019-05-11T08:59:58.009Z,97470.46
2019-05-11T09:03:02.621Z,97473.19
2019-05-11T09:06:08.455Z,97485.69
2019-05-11T09:09:13.425Z,97488.52
2019-05-11T09:12:18.291Z,97494.09
2019-05-11T09:15:33.490Z,97511.25
2019-05-11T09:18:29.362Z,97497.58
2019-05-11T09:21:33.811Z,97488.27
2019-05-11T09:24:38.745Z,97485.69
2019-05-11T09:27:43.573Z,97488.13
2019-05-11T09:30:48.429Z,97495.27
2019-05-11T09:33:53.227Z,97486.13
2019-05-11T09:36:58.658Z,97490.56
2019-05-11T09:40:03.833Z,97497.50
2019-05-11T09:43:08.629Z,97496.70
2019-05-11T09:46:13.369Z,97503.77
2019-05-11T09:49:18.652Z,97496.55
2019-05-11T09:52:23.551Z,97496.56
2019-05-11T09:55:28.419Z,97493.73
2019-05-11T09:58:32.921Z,97480.59
2019-05-11T10:01:37.951Z,97477.06
2019-05-11T10:04:42.880Z,97477.23
2019-05-11T10:07:48.493Z,97471.47
2019-05-11T10:10:53.301Z,97481.64
2019-05-11T10:13:57.949Z,97468.03
2019-05-11T10:17:02.726Z,97478.97
2019-05-11T10:20:09.560Z,97480.36
2019-05-11T10:23:14.065Z,97473.41
2019-05-11T10:26:18.971Z,97481.09
2019-05-11T10:29:23.529Z,97494.33
2019-05-11T10:32:28.810Z,97503.78
2019-05-11T10:35:33.672Z,97506.63
2019-05-11T10:38:38.403Z,97498.72
2019-05-11T10:41:42.852Z,97504.26
2019-05-11T10:44:47.948Z,97513.64
2019-05-11T10:47:55.737Z,97509.56
2019-05-11T10:50:58.757Z,97511.95
2019-05-11T10:54:03.238Z,97523.82
2019-05-11T10:57:08.436Z,97520.09
2019-05-11T11:00:13.208Z,97507.42
2019-05-11T11:03:18.043Z,97506.16
2019-05-11T11:06:23.302Z,97508.21
2019-05-11T11:09:28.418Z,97510.92
2019-05-11T11:12:32.958Z,97507.52
2019-05-11T11:15:38.085Z,97504.80
2019-05-11T11:18:42.976Z,97498.92
2019-05-11T11:21:48.730Z,97505.44
2019-05-11T11:24:53.780Z,97510.99
2019-05-11T11:27:58.437Z,97510.09
2019-05-11T11:31:03.280Z,97505.34
2019-05-11T11:34:08.390Z,97497.42
2019-05-11T11:37:13.209Z,97501.87
2019-05-11T11:40:18.018Z,97505.93
2019-05-11T11:43:22.962Z,97509.94
2019-05-11T11:46:27.812Z,97517.38
2019-05-11T11:49:32.403Z,97521.80
2019-05-11T11:52:38.323Z,97526.53
2019-05-11T11:55:42.985Z,97513.77
2019-05-11T11:58:48.832Z,97511.16
2019-05-11T12:01:53.581Z,97516.81
2019-05-11T12:04:58.387Z,97507.40
2019-05-11T12:08:03.065Z,97520.98
2019-05-11T12:11:08.045Z,97527.31
2019-05-11T12:14:12.638Z,97527.09
2019-05-11T12:17:18.193Z,97523.09
2019-05-11T12:20:22.863Z,97522.77
2019-05-11T12:23:28.463Z,97528.00
2019-05-11T12:26:33.308Z,97512.86
2019-05-11T12:29:38.537Z,97513.09
2019-05-11T12:32:48.754Z,97509.23
2019-05-11T12:35:53.403Z,97492.77
2019-05-11T12:38:58.184Z,97494.23
2019-05-11T12:42:02.595Z,97501.73
2019-05-11T12:45:08.941Z,97500.33
2019-05-11T12:48:13.389Z,97491.77
2019-05-11T12:51:18.844Z,97488.03
2019-05-11T12:54:23.576Z,97481.79
2019-05-11T12:57:28.301Z,97466.02
2019-05-11T13:00:33.425Z,97470.81
2019-05-11T13:03:38.581Z,97473.52
2019-05-11T13:06:44.116Z,97477.84
2019-05-11T13:09:48.851Z,97487.66
2019-05-11T13:12:53.577Z,97493.59
2019-05-11T13:15:58.507Z,97506.82
2019-05-11T13:19:03.144Z,97512.41
2019-05-11T13:22:07.986Z,97518.83
2019-05-11T13:25:13.014Z,97541.11
2019-05-11T13:28:18.032Z,97559.33
2019-05-11T13:31:22.984Z,97558.22
2019-05-11T13:34:31.195Z,97585.96
2019-05-11T13:37:33.875Z,97605.55
2019-05-11T13:40:38.630Z,97594.42
2019-05-11T13:43:43.341Z,97589.34
2019-05-11T13:46:48.272Z,97588.88
2019-05-11T13:49:53.007Z,97601.16
2019-05-11T13:52:58.380Z,97596.22
2019-05-11T13:56:03.388Z,97588.52
2019-05-11T13:59:10.594Z,97580.89
2019-05-11T14:02:15.066Z,97590.75
2019-05-11T14:05:19.514Z,97598.88
2019-05-11T14:08:23.947Z,97583.26
2019-05-11T14:11:28.680Z,97599.77
2019-05-11T14:14:33.205Z,97598.51
2019-05-11T14:17:38.162Z,97605.53
2019-05-11T14:20:43.086Z,97625.66
2019-05-11T14:23:48.449Z,97653.88
2019-05-11T14:26:53.241Z,97686.02
2019-05-11T14:29:58.005Z,97706.81
2019-05-11T14:33:02.925Z,97715.94
2019-05-11T14:36:08.611Z,97722.27
2019-05-11T14:39:13.184Z,97737.45
2019-05-11T14:42:22.145Z,97736.77
2019-05-11T14:45:23.805Z,97732.31
2019-05-11T14:48:30.210Z,97732.55
2019-05-11T14:51:34.855Z,97738.55
2019-05-11T14:54:39.328Z,97752.37
2019-05-11T14:57:43.769Z,97778.05
2019-05-11T15:00:48.754Z,97776.50
2019-05-11T15:03:53.329Z,97765.05
2019-05-11T15:06:58.008Z,97749.29
2019-05-11T15:10:02.561Z,97737.55
2019-05-11T15:13:08.027Z,97728.06
2019-05-11T15:16:12.721Z,97741.23
2019-05-11T15:19:18.481Z,97743.25
2019-05-11T15:22:23.431Z,97744.07
2019-05-11T15:25:28.830Z,97762.93
2019-05-11T15:28:33.916Z,97772.11
2019-05-11T15:31:38.649Z,97775.25
2019-05-11T15:34:43.085Z,97789.32
2019-05-11T15:37:48.131Z,97795.61
2019-05-11T15:40:52.797Z,97802.94
2019-05-11T15:43:57.922Z,97807.78
2019-05-11T15:47:02.712Z,97812.02
2019-05-11T15:50:10.984Z,97805.89
2019-05-11T15:53:17.667Z,97814.64
2019-05-11T15:56:21.919Z,97808.88
2019-05-11T15:59:27.971Z,97811.52
2019-05-11T16:02:33.221Z,97817.35
2019-05-11T16:05:37.659Z,97824.20
2019-05-11T16:08:45.113Z,97830.92
2019-05-11T16:11:48.547Z,97832.27
2019-05-11T16:14:52.982Z,97833.31
2019-05-11T16:17:57.904Z,97841.73
2019-05-11T16:21:02.337Z,97858.98
2019-05-11T16:24:08.012Z,97861.88
2019-05-11T16:27:12.784Z,97890.14
2019-05-11T16:30:20.871Z,97897.97
2019-05-11T16:33:24.011Z,97912.22
2019-05-11T16:36:28.745Z,97912.70
2019-05-11T16:39:33.187Z,97920.92
2019-05-11T16:42:38.698Z,97918.67
2019-05-11T16:45:43.315Z,97919.03
2019-05-11T16:48:47.752Z,97918.05
2019-05-11T16:51:52.498Z,97929.45
2019-05-11T16:54:58.315Z,97932.08
2019-05-11T16:58:02.858Z,97940.05
2019-05-11T17:01:08.615Z,97938.20
2019-05-11T17:04:13.671Z,97943.19
2019-05-11T17:07:18.131Z,97954.87
2019-05-11T17:10:23.033Z,97959.41
2019-05-11T17:13:27.543Z,97960.60
2019-05-11T17:16:31.982Z,97974.66
2019-05-11T17:19:45.441Z,97979.87
2019-05-11T17:22:42.893Z,97980.89
2019-05-11T17:25:48.403Z,97996.82
2019-05-11T17:28:53.271Z,98000.08
2019-05-11T17:31:58.070Z,98008.26
2019-05-11T17:35:03.029Z,98029.46
2019-05-11T17:38:08.058Z,98041.16
2019-05-11T17:41:12.904Z,98064.76
2019-05-11T17:44:18.561Z,98075.19
2019-05-11T17:47:23.750Z,98080.07
2019-05-11T17:50:28.388Z,98096.19
2019-05-11T17:53:33.051Z,98112.16
2019-05-11T17:56:38.852Z,98122.90
2019-05-11T17:59:43.516Z,98121.11
2019-05-11T18:02:49.007Z,98138.15
2019-05-11T18:05:53.925Z,98141.06
2019-05-11T18:08:58.506Z,98151.84
2019-05-11T18:12:02.883Z,98164.65
2019-05-11T18:15:08.584Z,98166.38
2019-05-11T18:18:13.258Z,98176.41
2019-05-11T18:21:18.815Z,98180.13
2019-05-11T18:24:23.740Z,98188.41
2019-05-11T18:27:28.178Z,98195.09
2019-05-11T18:30:32.636Z,98203.15
2019-05-11T18:33:38.184Z,98209.64
2019-05-11T18:36:43.066Z,98216.42
2019-05-11T18:39:48.454Z,98225.08
2019-05-11T18:42:53.025Z,98232.25
2019-05-11T18:45:58.126Z,98231.88
2019-05-11T18:49:03.222Z,98241.24
2019-05-11T18:52:08.232Z,98247.97
2019-05-11T18:55:13.117Z,98260.28
2019-05-11T18:58:18.391Z,98273.30
2019-05-11T19:01:23.483Z,98281.97
2019-05-11T19:04:28.714Z,98292.31
2019-05-11T19:07:33.440Z,98297.77
2019-05-11T19:10:38.412Z,98303.38
2019-05-11T19:13:43.074Z,98311.22
2019-05-11T19:16:49.154Z,98316.31
2019-05-11T19:19:53.734Z,98337.27
2019-05-11T19:22:59.008Z,98336.73
2019-05-11T19:26:03.884Z,98342.88
2019-05-11T19:29:09.046Z,98347.48
2019-05-11T19:32:13.648Z,98351.22
2019-05-11T19:35:21.251Z,98372.14
2019-05-11T19:38:24.537Z,98381.06
2019-05-11T19:41:29.282Z,98383.77
2019-05-11T19:44:34.008Z,98392.08
2019-05-11T19:47:38.444Z,98404.96
2019-05-11T19:50:43.171Z,98403.62
2019-05-11T19:53:48.402Z,98412.52
2019-05-11T19:56:53.349Z,98433.70
2019-05-11T19:59:58.387Z,98428.31
2019-05-11T20:03:03.213Z,98436.09
2019-05-11T20:06:08.743Z,98449.80
2019-05-11T20:09:13.410Z,98460.27
2019-05-11T20:12:18.136Z,98464.31
2019-05-11T20:15:22.859Z,98476.65
2019-05-11T20:18:28.895Z,98477.72
2019-05-11T20:21:34.463Z,98484.44
2019-05-11T20:24:38.903Z,98494.64
2019-05-11T20:27:44.743Z,98501.09
2019-05-11T20:30:49.475Z,98497.31
2019-05-11T20:33:53.911Z,98497.31
2019-05-11T20:36:58.839Z,98508.59
2019-05-11T20:40:04.077Z,98509.39
2019-05-11T20:43:08.813Z,98517.95
2019-05-11T20:46:13.254Z,98513.95
2019-05-11T20:49:17.965Z,98521.98
2019-05-11T20:52:22.408Z,98513.91
2019-05-11T20:55:28.418Z,98525.20
2019-05-11T20:58:35.024Z,98529.96
2019-05-11T21:01:39.476Z,98536.97
2019-05-11T21:04:44.181Z,98535.88
2019-05-11T21:07:48.621Z,98539.09
2019-05-11T21:10:53.134Z,98549.04
2019-05-11T21:13:57.576Z,98557.84
2019-05-11T21:17:02.287Z,98561.61
2019-05-11T21:20:10.020Z,98571.27
2019-05-11T21:23:14.709Z,98585.44
2019-05-11T21:26:19.158Z,98583.02
2019-05-11T21:29:23.605Z,98590.80
2019-05-11T21:32:28.393Z,98599.42
2019-05-11T21:35:33.706Z,98609.91
2019-05-11T21:38:38.604Z,98613.91
2019-05-11T21:41:43.506Z,98616.34
2019-05-11T21:44:47.935Z,98615.98
2019-05-11T21:47:52.381Z,98624.30
2019-05-11T21:50:59.702Z,98635.03
2019-05-11T21:54:03.250Z,98645.23
2019-05-11T21:57:08.359Z,98650.61
2019-05-11T22:00:13.728Z,98653.56
2019-05-11T22:03:18.937Z,98659.98
2019-05-11T22:06:23.809Z,98667.16
2019-05-11T22:09:28.240Z,98666.76
2019-05-11T22:12:32.687Z,98668.94
2019-05-11T22:15:38.581Z,98676.45
2019-05-11T22:18:43.553Z,98682.95
2019-05-11T22:21:49.670Z,98691.48
2019-05-11T22:24:54.548Z,98692.09
2019-05-11T22:27:59.004Z,98691.06
2019-05-11T22:31:03.440Z,98696.07
2019-05-11T22:34:08.916Z,98697.31
2019-05-11T22:37:13.512Z,98700.88
2019-05-11T22:40:18.508Z,98704.77
2019-05-11T22:43:23.241Z,98712.34
2019-05-11T22:46:28.170Z,98716.25
2019-05-11T22:49:33.111Z,98724.05
2019-05-11T22:52:40.247Z,98729.64
2019-05-11T22:55:44.755Z,98734.63
2019-05-11T22:58:49.905Z,98739.69
2019-05-11T23:01:54.507Z,98746.89
2019-05-11T23:04:59.321Z,98742.75
2019-05-11T23:08:07.525Z,98745.84
2019-05-11T23:11:11.770Z,98747.18
2019-05-11T23:14:17.711Z,98740.71
2019-05-11T23:17:22.653Z,98754.45
2019-05-11T23:20:29.982Z,98761.68
2019-05-11T23:23:33.312Z,98759.03
2019-05-11T23:26:38.655Z,98767.33
2019-05-11T23:29:43.280Z,98763.52
2019-05-11T23:32:48.573Z,98772.22
2019-05-11T23:35:53.232Z,98773.80
2019-05-11T23:38:58.579Z,98775.23
2019-05-11T23:42:03.182Z,98776.00
2019-05-11T23:45:09.436Z,98784.73
2019-05-11T23:48:13.873Z,98777.25
2019-05-11T23:51:18.372Z,98781.73
2019-05-11T23:54:23.101Z,98784.44
2019-05-11T23:57:27.535Z,98788.91
